sensor_id;sensor_type;location;lat;lon;timestamp;pressure;altitude;pressure_sealevel;temperature;humidity
47742;BME280;33504;52.066;6.096;2023-07-22T00:00:39;101310.88;;;17.74;43.34
47742;BME280;33504;52.066;6.096;2023-07-22T00:03:07;101308.67;;;17.91;43.29
47742;BME280;33504;52.066;6.096;2023-07-22T00:05:34;101308.78;;;17.85;43.29
47742;BME280;33504;52.066;6.096;2023-07-22T00:08:01;101307.15;;;17.80;43.47
47742;BME280;33504;52.066;6.096;2023-07-22T00:10:29;101307.85;;;17.73;43.49
47742;BME280;33504;52.066;6.096;2023-07-22T00:12:56;101305.79;;;17.41;43.58
47742;BME280;33504;52.066;6.096;2023-07-22T00:15:23;101303.87;;;17.36;43.63
47742;BME280;33504;52.066;6.096;2023-07-22T00:17:51;101303.66;;;17.50;43.70
47742;BME280;33504;52.066;6.096;2023-07-22T00:20:18;101301.71;;;17.44;43.74
47742;BME280;33504;52.066;6.096;2023-07-22T00:22:45;101298.85;;;17.38;43.99
47742;BME280;33504;52.066;6.096;2023-07-22T00:25:12;101297.55;;;17.62;44.01
47742;BME280;33504;52.066;6.096;2023-07-22T00:27:40;101298.74;;;17.33;43.98
47742;BME280;33504;52.066;6.096;2023-07-22T00:30:09;101294.47;;;17.31;44.04
47742;BME280;33504;52.066;6.096;2023-07-22T00:32:36;101295.72;;;17.55;44.20
47742;BME280;33504;52.066;6.096;2023-07-22T00:35:04;101292.64;;;17.25;44.01
47742;BME280;33504;52.066;6.096;2023-07-22T00:37:32;101294.96;;;17.21;44.12
47742;BME280;33504;52.066;6.096;2023-07-22T00:39:58;101295.39;;;17.16;44.04
47742;BME280;33504;52.066;6.096;2023-07-22T00:42:26;101298.36;;;17.10;44.06
47742;BME280;33504;52.066;6.096;2023-07-22T00:44:53;101298.70;;;17.33;44.08
47742;BME280;33504;52.066;6.096;2023-07-22T00:47:20;101293.91;;;16.80;44.09
47742;BME280;33504;52.066;6.096;2023-07-22T00:49:49;101291.98;;;17.24;44.22
47742;BME280;33504;52.066;6.096;2023-07-22T00:52:17;101289.10;;;16.88;44.28
47742;BME280;33504;52.066;6.096;2023-07-22T00:54:44;101287.13;;;16.83;44.27
47742;BME280;33504;52.066;6.096;2023-07-22T00:57:11;101286.21;;;16.76;44.43
47742;BME280;33504;52.066;6.096;2023-07-22T00:59:39;101287.33;;;16.70;44.45
47742;BME280;33504;52.066;6.096;2023-07-22T01:02:06;101285.37;;;16.63;44.44
47742;BME280;33504;52.066;6.096;2023-07-22T01:04:33;101287.49;;;16.58;44.59
47742;BME280;33504;52.066;6.096;2023-07-22T01:07:01;101286.00;;;16.78;44.77
47742;BME280;33504;52.066;6.096;2023-07-22T01:09:34;101283.61;;;16.73;44.74
47742;BME280;33504;52.066;6.096;2023-07-22T01:12:01;101286.04;;;16.71;44.82
47742;BME280;33504;52.066;6.096;2023-07-22T01:14:29;101285.14;;;16.70;45.09
47742;BME280;33504;52.066;6.096;2023-07-22T01:16:55;101280.48;;;16.69;45.20
47742;BME280;33504;52.066;6.096;2023-07-22T01:19:23;101274.94;;;16.77;45.09
47742;BME280;33504;52.066;6.096;2023-07-22T01:21:50;101271.39;;;16.81;45.03
47742;BME280;33504;52.066;6.096;2023-07-22T01:24:18;101268.54;;;16.86;44.99
47742;BME280;33504;52.066;6.096;2023-07-22T01:26:45;101266.36;;;17.08;45.03
47742;BME280;33504;52.066;6.096;2023-07-22T01:29:13;101263.72;;;17.06;45.21
47742;BME280;33504;52.066;6.096;2023-07-22T01:31:41;101264.57;;;17.13;44.99
47742;BME280;33504;52.066;6.096;2023-07-22T01:34:07;101261.40;;;17.17;44.91
47742;BME280;33504;52.066;6.096;2023-07-22T01:36:34;101260.94;;;17.19;44.83
47742;BME280;33504;52.066;6.096;2023-07-22T01:39:01;101260.91;;;17.00;44.77
47742;BME280;33504;52.066;6.096;2023-07-22T01:41:27;101261.67;;;17.21;44.89
47742;BME280;33504;52.066;6.096;2023-07-22T01:43:54;101260.60;;;17.20;44.93
47742;BME280;33504;52.066;6.096;2023-07-22T01:46:21;101261.63;;;16.67;44.93
47742;BME280;33504;52.066;6.096;2023-07-22T01:48:48;101262.35;;;16.93;45.07
47742;BME280;33504;52.066;6.096;2023-07-22T01:51:15;101261.06;;;16.94;45.08
47742;BME280;33504;52.066;6.096;2023-07-22T01:53:42;101261.21;;;16.80;44.89
47742;BME280;33504;52.066;6.096;2023-07-22T01:56:09;101260.46;;;16.84;44.83
47742;BME280;33504;52.066;6.096;2023-07-22T01:58:36;101259.48;;;17.12;44.77
47742;BME280;33504;52.066;6.096;2023-07-22T02:01:03;101259.41;;;16.87;44.76
47742;BME280;33504;52.066;6.096;2023-07-22T02:03:30;101258.61;;;17.13;44.61
47742;BME280;33504;52.066;6.096;2023-07-22T02:06:01;101258.98;;;16.90;44.62
47742;BME280;33504;52.066;6.096;2023-07-22T02:08:29;101260.13;;;16.87;44.81
47742;BME280;33504;52.066;6.096;2023-07-22T02:11:00;101259.83;;;16.84;44.64
47742;BME280;33504;52.066;6.096;2023-07-22T02:13:27;101263.12;;;16.82;44.85
47742;BME280;33504;52.066;6.096;2023-07-22T02:15:54;101260.59;;;16.86;44.88
47742;BME280;33504;52.066;6.096;2023-07-22T02:18:21;101260.48;;;17.16;44.86
47742;BME280;33504;52.066;6.096;2023-07-22T02:20:48;101258.41;;;16.85;44.93
47742;BME280;33504;52.066;6.096;2023-07-22T02:23:15;101258.25;;;17.34;44.92
47742;BME280;33504;52.066;6.096;2023-07-22T02:25:42;101257.53;;;16.84;45.01
47742;BME280;33504;52.066;6.096;2023-07-22T02:28:09;101251.94;;;17.08;44.99
47742;BME280;33504;52.066;6.096;2023-07-22T02:30:36;101251.83;;;17.08;45.14
47742;BME280;33504;52.066;6.096;2023-07-22T02:33:05;101251.36;;;16.75;45.29
47742;BME280;33504;52.066;6.096;2023-07-22T02:35:32;101250.82;;;17.06;45.26
47742;BME280;33504;52.066;6.096;2023-07-22T02:37:59;101250.98;;;17.07;45.24
47742;BME280;33504;52.066;6.096;2023-07-22T02:40:27;101248.96;;;17.07;45.08
47742;BME280;33504;52.066;6.096;2023-07-22T02:42:54;101247.58;;;16.79;45.20
47742;BME280;33504;52.066;6.096;2023-07-22T02:45:21;101245.10;;;17.27;45.16
47742;BME280;33504;52.066;6.096;2023-07-22T02:47:48;101245.61;;;17.00;45.30
47742;BME280;33504;52.066;6.096;2023-07-22T02:50:15;101244.67;;;17.20;45.37
47742;BME280;33504;52.066;6.096;2023-07-22T02:52:42;101245.04;;;16.95;45.34
47742;BME280;33504;52.066;6.096;2023-07-22T02:55:11;101244.68;;;16.63;45.36
47742;BME280;33504;52.066;6.096;2023-07-22T02:57:40;101247.00;;;16.56;45.36
47742;BME280;33504;52.066;6.096;2023-07-22T03:00:08;101243.57;;;16.97;45.44
47742;BME280;33504;52.066;6.096;2023-07-22T03:02:36;101244.02;;;16.66;45.67
47742;BME280;33504;52.066;6.096;2023-07-22T03:05:04;101241.76;;;16.60;45.61
47742;BME280;33504;52.066;6.096;2023-07-22T03:07:32;101243.93;;;16.57;45.67
47742;BME280;33504;52.066;6.096;2023-07-22T03:09:58;101247.61;;;16.77;45.78
47742;BME280;33504;52.066;6.096;2023-07-22T03:12:26;101255.57;;;16.75;45.77
47742;BME280;33504;52.066;6.096;2023-07-22T03:14:53;101256.58;;;16.74;45.83
47742;BME280;33504;52.066;6.096;2023-07-22T03:17:20;101251.57;;;16.49;46.07
47742;BME280;33504;52.066;6.096;2023-07-22T03:19:47;101249.08;;;16.69;45.83
47742;BME280;33504;52.066;6.096;2023-07-22T03:22:16;101250.49;;;16.66;45.93
47742;BME280;33504;52.066;6.096;2023-07-22T03:24:43;101250.86;;;16.42;45.88
47742;BME280;33504;52.066;6.096;2023-07-22T03:27:11;101256.64;;;16.38;45.91
47742;BME280;33504;52.066;6.096;2023-07-22T03:29:38;101259.13;;;16.51;46.28
47742;BME280;33504;52.066;6.096;2023-07-22T03:32:06;101253.93;;;16.53;46.22
47742;BME280;33504;52.066;6.096;2023-07-22T03:34:34;101251.43;;;16.54;46.29
47742;BME280;33504;52.066;6.096;2023-07-22T03:37:01;101253.01;;;16.55;46.40
47742;BME280;33504;52.066;6.096;2023-07-22T03:39:28;101255.53;;;16.55;46.31
47742;BME280;33504;52.066;6.096;2023-07-22T03:41:55;101255.18;;;16.52;46.41
47742;BME280;33504;52.066;6.096;2023-07-22T03:44:22;101254.88;;;16.51;46.31
47742;BME280;33504;52.066;6.096;2023-07-22T03:46:49;101252.63;;;16.52;46.43
47742;BME280;33504;52.066;6.096;2023-07-22T03:49:16;101250.64;;;16.48;46.51
47742;BME280;33504;52.066;6.096;2023-07-22T03:51:44;101252.02;;;16.33;47.01
47742;BME280;33504;52.066;6.096;2023-07-22T03:54:11;101252.55;;;16.42;46.88
47742;BME280;33504;52.066;6.096;2023-07-22T03:56:41;101249.60;;;16.41;46.92
47742;BME280;33504;52.066;6.096;2023-07-22T03:59:08;101249.92;;;16.39;47.04
47742;BME280;33504;52.066;6.096;2023-07-22T04:01:35;101253.10;;;16.37;47.28
47742;BME280;33504;52.066;6.096;2023-07-22T04:04:01;101251.70;;;16.24;47.49
47742;BME280;33504;52.066;6.096;2023-07-22T04:06:28;101251.38;;;16.32;47.26
47742;BME280;33504;52.066;6.096;2023-07-22T04:08:55;101254.16;;;16.37;47.06
47742;BME280;33504;52.066;6.096;2023-07-22T04:11:22;101254.32;;;16.43;47.13
47742;BME280;33504;52.066;6.096;2023-07-22T04:13:49;101254.05;;;16.42;47.19
47742;BME280;33504;52.066;6.096;2023-07-22T04:16:16;101251.89;;;16.16;47.23
47742;BME280;33504;52.066;6.096;2023-07-22T04:18:42;101249.80;;;16.35;47.42
47742;BME280;33504;52.066;6.096;2023-07-22T04:21:09;101254.23;;;16.37;47.42
47742;BME280;33504;52.066;6.096;2023-07-22T04:23:37;101254.49;;;16.41;47.38
47742;BME280;33504;52.066;6.096;2023-07-22T04:26:04;101256.77;;;16.47;47.31
47742;BME280;33504;52.066;6.096;2023-07-22T04:28:30;101258.41;;;16.49;47.32
47742;BME280;33504;52.066;6.096;2023-07-22T04:30:58;101256.83;;;16.50;47.33
47742;BME280;33504;52.066;6.096;2023-07-22T04:33:26;101256.25;;;16.44;47.52
47742;BME280;33504;52.066;6.096;2023-07-22T04:35:56;101256.42;;;16.47;47.48
47742;BME280;33504;52.066;6.096;2023-07-22T04:38:24;101258.52;;;16.50;47.36
47742;BME280;33504;52.066;6.096;2023-07-22T04:40:51;101258.29;;;16.31;47.49
47742;BME280;33504;52.066;6.096;2023-07-22T04:43:18;101258.23;;;16.62;47.44
47742;BME280;33504;52.066;6.096;2023-07-22T04:45:46;101262.76;;;16.40;47.45
47742;BME280;33504;52.066;6.096;2023-07-22T04:48:14;101265.61;;;16.40;47.55
47742;BME280;33504;52.066;6.096;2023-07-22T04:50:41;101263.47;;;16.67;47.44
47742;BME280;33504;52.066;6.096;2023-07-22T04:53:08;101258.73;;;16.66;47.83
47742;BME280;33504;52.066;6.096;2023-07-22T04:55:35;101255.21;;;16.48;47.96
47742;BME280;33504;52.066;6.096;2023-07-22T04:58:02;101250.53;;;16.51;47.93
47742;BME280;33504;52.066;6.096;2023-07-22T05:00:29;101251.29;;;16.82;48.08
47742;BME280;33504;52.066;6.096;2023-07-22T05:02:56;101250.91;;;16.67;48.37
47742;BME280;33504;52.066;6.096;2023-07-22T05:05:23;101249.77;;;16.60;48.23
47742;BME280;33504;52.066;6.096;2023-07-22T05:07:50;101251.21;;;16.82;48.29
47742;BME280;33504;52.066;6.096;2023-07-22T05:10:16;101253.60;;;16.75;48.71
47742;BME280;33504;52.066;6.096;2023-07-22T05:12:43;101252.52;;;16.87;48.08
47742;BME280;33504;52.066;6.096;2023-07-22T05:15:11;101253.01;;;16.73;47.98
47742;BME280;33504;52.066;6.096;2023-07-22T05:17:38;101256.11;;;17.00;47.93
47742;BME280;33504;52.066;6.096;2023-07-22T05:20:06;101261.14;;;17.06;47.92
47742;BME280;33504;52.066;6.096;2023-07-22T05:22:34;101260.94;;;16.98;48.25
47742;BME280;33504;52.066;6.096;2023-07-22T05:25:01;101265.53;;;17.03;48.45
47742;BME280;33504;52.066;6.096;2023-07-22T05:27:28;101266.66;;;17.12;48.19
47742;BME280;33504;52.066;6.096;2023-07-22T05:29:55;101264.51;;;17.13;48.46
47742;BME280;33504;52.066;6.096;2023-07-22T05:32:22;101266.04;;;16.89;48.72
47742;BME280;33504;52.066;6.096;2023-07-22T05:34:49;101265.22;;;16.57;48.96
47742;BME280;33504;52.066;6.096;2023-07-22T05:37:16;101267.77;;;16.36;49.39
47742;BME280;33504;52.066;6.096;2023-07-22T05:39:43;101264.82;;;17.04;49.09
47742;BME280;33504;52.066;6.096;2023-07-22T05:42:10;101264.61;;;17.08;49.08
47742;BME280;33504;52.066;6.096;2023-07-22T05:44:37;101267.51;;;16.62;49.05
47742;BME280;33504;52.066;6.096;2023-07-22T05:47:04;101268.42;;;16.73;49.51
47742;BME280;33504;52.066;6.096;2023-07-22T05:49:32;101267.47;;;16.49;50.06
47742;BME280;33504;52.066;6.096;2023-07-22T05:51:59;101261.05;;;16.90;49.40
47742;BME280;33504;52.066;6.096;2023-07-22T05:54:26;101263.62;;;17.20;49.02
47742;BME280;33504;52.066;6.096;2023-07-22T05:56:54;101257.99;;;17.00;49.48
47742;BME280;33504;52.066;6.096;2023-07-22T05:59:20;101257.08;;;16.82;49.51
47742;BME280;33504;52.066;6.096;2023-07-22T06:01:48;101253.39;;;17.07;48.92
47742;BME280;33504;52.066;6.096;2023-07-22T06:04:14;101252.63;;;17.27;49.10
47742;BME280;33504;52.066;6.096;2023-07-22T06:06:42;101252.31;;;16.59;49.94
47742;BME280;33504;52.066;6.096;2023-07-22T06:09:08;101248.41;;;16.86;49.41
47742;BME280;33504;52.066;6.096;2023-07-22T06:11:35;101248.73;;;17.07;49.23
47742;BME280;33504;52.066;6.096;2023-07-22T06:14:03;101251.75;;;17.45;48.76
47742;BME280;33504;52.066;6.096;2023-07-22T06:16:30;101253.68;;;17.21;49.31
47742;BME280;33504;52.066;6.096;2023-07-22T06:18:56;101255.43;;;17.81;48.72
47742;BME280;33504;52.066;6.096;2023-07-22T06:21:23;101252.64;;;17.25;49.21
47742;BME280;33504;52.066;6.096;2023-07-22T06:23:50;101250.54;;;17.75;48.46
47742;BME280;33504;52.066;6.096;2023-07-22T06:26:17;101249.18;;;17.80;48.09
47742;BME280;33504;52.066;6.096;2023-07-22T06:28:44;101248.15;;;18.22;47.66
47742;BME280;33504;52.066;6.096;2023-07-22T06:31:12;101250.51;;;18.59;47.12
47742;BME280;33504;52.066;6.096;2023-07-22T06:33:38;101253.67;;;18.45;47.13
47742;BME280;33504;52.066;6.096;2023-07-22T06:36:05;101258.18;;;18.40;46.94
47742;BME280;33504;52.066;6.096;2023-07-22T06:38:32;101257.69;;;18.19;47.26
47742;BME280;33504;52.066;6.096;2023-07-22T06:40:59;101255.51;;;18.20;47.62
47742;BME280;33504;52.066;6.096;2023-07-22T06:43:26;101260.68;;;18.51;46.89
47742;BME280;33504;52.066;6.096;2023-07-22T06:45:53;101258.68;;;18.51;47.02
47742;BME280;33504;52.066;6.096;2023-07-22T06:48:19;101264.49;;;18.77;46.45
47742;BME280;33504;52.066;6.096;2023-07-22T06:50:48;101260.81;;;19.06;45.79
47742;BME280;33504;52.066;6.096;2023-07-22T06:53:15;101264.83;;;19.08;45.85
47742;BME280;33504;52.066;6.096;2023-07-22T06:55:48;101263.52;;;18.98;46.08
47742;BME280;33504;52.066;6.096;2023-07-22T06:58:16;101260.73;;;19.26;45.30
47742;BME280;33504;52.066;6.096;2023-07-22T07:00:43;101265.98;;;18.92;45.58
47742;BME280;33504;52.066;6.096;2023-07-22T07:03:10;101263.45;;;18.95;45.36
47742;BME280;33504;52.066;6.096;2023-07-22T07:05:36;101259.85;;;19.17;45.49
47742;BME280;33504;52.066;6.096;2023-07-22T07:08:04;101255.26;;;19.33;45.43
47742;BME280;33504;52.066;6.096;2023-07-22T07:10:34;101249.64;;;19.72;44.94
47742;BME280;33504;52.066;6.096;2023-07-22T07:13:02;101247.42;;;19.75;44.71
47742;BME280;33504;52.066;6.096;2023-07-22T07:15:29;101248.72;;;20.07;44.17
47742;BME280;33504;52.066;6.096;2023-07-22T07:17:57;101248.83;;;20.12;43.50
47742;BME280;33504;52.066;6.096;2023-07-22T07:20:24;101245.07;;;20.25;43.79
47742;BME280;33504;52.066;6.096;2023-07-22T07:22:50;101247.75;;;20.46;43.07
47742;BME280;33504;52.066;6.096;2023-07-22T07:25:17;101238.50;;;20.69;42.59
47742;BME280;33504;52.066;6.096;2023-07-22T07:27:44;101229.10;;;19.72;43.31
47742;BME280;33504;52.066;6.096;2023-07-22T07:30:12;101229.85;;;19.93;43.30
47742;BME280;33504;52.066;6.096;2023-07-22T07:32:39;101235.73;;;20.50;43.10
47742;BME280;33504;52.066;6.096;2023-07-22T07:35:07;101233.60;;;20.77;42.24
47742;BME280;33504;52.066;6.096;2023-07-22T07:37:34;101235.46;;;20.62;41.54
47742;BME280;33504;52.066;6.096;2023-07-22T07:40:02;101238.41;;;21.10;40.66
47742;BME280;33504;52.066;6.096;2023-07-22T07:42:29;101236.27;;;21.09;40.93
47742;BME280;33504;52.066;6.096;2023-07-22T07:44:57;101235.70;;;21.09;40.74
47742;BME280;33504;52.066;6.096;2023-07-22T07:47:24;101233.69;;;20.95;40.79
47742;BME280;33504;52.066;6.096;2023-07-22T07:49:51;101232.22;;;21.00;40.18
47742;BME280;33504;52.066;6.096;2023-07-22T07:52:19;101229.65;;;21.15;39.90
47742;BME280;33504;52.066;6.096;2023-07-22T07:54:45;101230.69;;;21.22;39.75
47742;BME280;33504;52.066;6.096;2023-07-22T07:57:13;101226.69;;;21.44;40.01
47742;BME280;33504;52.066;6.096;2023-07-22T07:59:40;101235.02;;;21.47;39.35
47742;BME280;33504;52.066;6.096;2023-07-22T08:02:06;101229.84;;;21.44;38.90
47742;BME280;33504;52.066;6.096;2023-07-22T08:04:33;101233.93;;;22.09;38.13
47742;BME280;33504;52.066;6.096;2023-07-22T08:07:00;101231.35;;;21.74;38.64
47742;BME280;33504;52.066;6.096;2023-07-22T08:09:27;101239.55;;;21.86;38.96
47742;BME280;33504;52.066;6.096;2023-07-22T08:11:55;101241.13;;;21.51;38.90
47742;BME280;33504;52.066;6.096;2023-07-22T08:14:21;101243.94;;;21.35;38.71
47742;BME280;33504;52.066;6.096;2023-07-22T08:16:49;101242.46;;;20.83;39.46
47742;BME280;33504;52.066;6.096;2023-07-22T08:19:15;101238.87;;;20.71;39.33
47742;BME280;33504;52.066;6.096;2023-07-22T08:21:42;101237.67;;;21.03;39.06
47742;BME280;33504;52.066;6.096;2023-07-22T08:24:09;101238.07;;;21.32;38.77
47742;BME280;33504;52.066;6.096;2023-07-22T08:26:37;101241.43;;;21.34;38.75
47742;BME280;33504;52.066;6.096;2023-07-22T08:29:04;101238.75;;;21.76;38.01
47742;BME280;33504;52.066;6.096;2023-07-22T08:31:31;101238.00;;;21.50;38.24
47742;BME280;33504;52.066;6.096;2023-07-22T08:33:58;101231.69;;;21.47;38.11
47742;BME280;33504;52.066;6.096;2023-07-22T08:36:25;101233.67;;;21.41;37.65
47742;BME280;33504;52.066;6.096;2023-07-22T08:38:52;101231.36;;;21.08;38.19
47742;BME280;33504;52.066;6.096;2023-07-22T08:41:20;101235.84;;;21.26;38.36
47742;BME280;33504;52.066;6.096;2023-07-22T08:43:48;101231.97;;;21.35;38.32
47742;BME280;33504;52.066;6.096;2023-07-22T08:46:20;101231.08;;;21.56;38.01
47742;BME280;33504;52.066;6.096;2023-07-22T08:48:53;101229.65;;;21.83;37.91
47742;BME280;33504;52.066;6.096;2023-07-22T08:51:21;101234.86;;;21.82;38.02
47742;BME280;33504;52.066;6.096;2023-07-22T08:53:49;101239.75;;;21.70;37.20
47742;BME280;33504;52.066;6.096;2023-07-22T08:56:17;101234.29;;;21.79;37.37
47742;BME280;33504;52.066;6.096;2023-07-22T08:58:46;101237.73;;;22.05;37.39
47742;BME280;33504;52.066;6.096;2023-07-22T09:01:13;101239.93;;;22.24;36.81
47742;BME280;33504;52.066;6.096;2023-07-22T09:03:41;101237.53;;;21.90;36.87
47742;BME280;33504;52.066;6.096;2023-07-22T09:06:08;101234.79;;;21.60;37.41
47742;BME280;33504;52.066;6.096;2023-07-22T09:08:36;101235.47;;;21.83;37.10
47742;BME280;33504;52.066;6.096;2023-07-22T09:11:03;101238.21;;;21.68;37.21
47742;BME280;33504;52.066;6.096;2023-07-22T09:13:30;101233.09;;;22.18;36.56
47742;BME280;33504;52.066;6.096;2023-07-22T09:15:59;101234.08;;;22.16;36.59
47742;BME280;33504;52.066;6.096;2023-07-22T09:18:26;101236.19;;;21.66;37.08
47742;BME280;33504;52.066;6.096;2023-07-22T09:20:53;101229.55;;;22.02;37.25
47742;BME280;33504;52.066;6.096;2023-07-22T09:23:32;101232.86;;;21.67;37.45
47742;BME280;33504;52.066;6.096;2023-07-22T09:26:08;101231.58;;;21.98;37.42
47742;BME280;33504;52.066;6.096;2023-07-22T09:28:47;101230.78;;;22.22;37.57
47742;BME280;33504;52.066;6.096;2023-07-22T09:31:15;101232.47;;;21.94;37.06
47742;BME280;33504;52.066;6.096;2023-07-22T09:33:42;101232.99;;;22.03;37.44
47742;BME280;33504;52.066;6.096;2023-07-22T09:36:10;101224.97;;;21.44;38.36
47742;BME280;33504;52.066;6.096;2023-07-22T09:38:37;101220.59;;;21.44;38.24
47742;BME280;33504;52.066;6.096;2023-07-22T09:41:04;101215.63;;;21.86;38.86
47742;BME280;33504;52.066;6.096;2023-07-22T09:43:35;101214.20;;;22.18;38.34
47742;BME280;33504;52.066;6.096;2023-07-22T09:46:07;101212.17;;;22.37;37.11
47742;BME280;33504;52.066;6.096;2023-07-22T09:48:43;101219.98;;;22.31;36.64
47742;BME280;33504;52.066;6.096;2023-07-22T09:51:13;101216.97;;;22.20;37.04
47742;BME280;33504;52.066;6.096;2023-07-22T09:53:59;101219.54;;;22.33;36.12
47742;BME280;33504;52.066;6.096;2023-07-22T09:56:27;101211.63;;;22.45;35.52
47742;BME280;33504;52.066;6.096;2023-07-22T09:58:54;101216.35;;;22.26;36.16
47742;BME280;33504;52.066;6.096;2023-07-22T10:01:24;101211.73;;;22.55;35.76
47742;BME280;33504;52.066;6.096;2023-07-22T10:03:53;101210.59;;;23.12;35.23
47742;BME280;33504;52.066;6.096;2023-07-22T10:06:21;101212.49;;;23.69;35.21
47742;BME280;33504;52.066;6.096;2023-07-22T10:08:50;101214.74;;;23.96;34.51
47742;BME280;33504;52.066;6.096;2023-07-22T10:11:18;101216.26;;;24.00;33.05
47742;BME280;33504;52.066;6.096;2023-07-22T10:13:46;101207.07;;;23.88;32.40
47742;BME280;33504;52.066;6.096;2023-07-22T10:16:13;101206.25;;;24.24;33.25
47742;BME280;33504;52.066;6.096;2023-07-22T10:18:42;101210.38;;;24.25;33.36
47742;BME280;33504;52.066;6.096;2023-07-22T10:21:10;101211.16;;;23.25;32.97
47742;BME280;33504;52.066;6.096;2023-07-22T10:23:38;101206.41;;;23.77;32.26
47742;BME280;33504;52.066;6.096;2023-07-22T10:26:05;101212.03;;;23.56;32.71
47742;BME280;33504;52.066;6.096;2023-07-22T10:28:33;101221.23;;;23.32;33.11
47742;BME280;33504;52.066;6.096;2023-07-22T10:31:00;101221.12;;;22.49;33.45
47742;BME280;33504;52.066;6.096;2023-07-22T10:33:27;101214.05;;;23.15;33.31
47742;BME280;33504;52.066;6.096;2023-07-22T10:36:04;101217.11;;;23.50;33.24
47742;BME280;33504;52.066;6.096;2023-07-22T10:38:31;101215.84;;;23.79;33.66
47742;BME280;33504;52.066;6.096;2023-07-22T10:40:59;101215.45;;;22.67;33.71
47742;BME280;33504;52.066;6.096;2023-07-22T10:43:28;101214.75;;;22.79;34.40
47742;BME280;33504;52.066;6.096;2023-07-22T10:45:57;101208.28;;;23.30;33.63
47742;BME280;33504;52.066;6.096;2023-07-22T10:48:27;101211.92;;;22.55;33.28
47742;BME280;33504;52.066;6.096;2023-07-22T10:50:58;101207.04;;;22.81;33.26
47742;BME280;33504;52.066;6.096;2023-07-22T10:53:29;101208.46;;;23.16;32.78
47742;BME280;33504;52.066;6.096;2023-07-22T10:56:07;101202.07;;;23.01;33.27
47742;BME280;33504;52.066;6.096;2023-07-22T10:58:56;101203.44;;;22.09;34.36
47742;BME280;33504;52.066;6.096;2023-07-22T11:01:24;101200.62;;;22.76;33.39
47742;BME280;33504;52.066;6.096;2023-07-22T11:04:29;101202.36;;;22.97;34.73
47742;BME280;33504;52.066;6.096;2023-07-22T11:06:58;101201.00;;;22.38;33.96
47742;BME280;33504;52.066;6.096;2023-07-22T11:09:40;101198.26;;;22.71;33.47
47742;BME280;33504;52.066;6.096;2023-07-22T11:12:11;101188.29;;;22.88;33.18
47742;BME280;33504;52.066;6.096;2023-07-22T11:14:43;101187.74;;;23.43;33.31
47742;BME280;33504;52.066;6.096;2023-07-22T11:17:11;101186.25;;;23.62;32.41
47742;BME280;33504;52.066;6.096;2023-07-22T11:19:39;101183.02;;;23.85;32.03
47742;BME280;33504;52.066;6.096;2023-07-22T11:22:07;101177.04;;;23.56;32.56
47742;BME280;33504;52.066;6.096;2023-07-22T11:24:35;101179.23;;;22.38;33.21
47742;BME280;33504;52.066;6.096;2023-07-22T11:27:04;101175.18;;;23.09;33.19
47742;BME280;33504;52.066;6.096;2023-07-22T11:29:31;101180.97;;;23.14;33.67
47742;BME280;33504;52.066;6.096;2023-07-22T11:31:58;101184.75;;;22.83;34.11
47742;BME280;33504;52.066;6.096;2023-07-22T11:34:26;101172.71;;;22.86;33.11
47742;BME280;33504;52.066;6.096;2023-07-22T11:36:55;101170.71;;;22.76;33.80
47742;BME280;33504;52.066;6.096;2023-07-22T11:39:23;101171.49;;;22.99;32.96
47742;BME280;33504;52.066;6.096;2023-07-22T11:41:52;101172.46;;;22.52;33.16
47742;BME280;33504;52.066;6.096;2023-07-22T11:44:20;101171.39;;;22.63;32.81
47742;BME280;33504;52.066;6.096;2023-07-22T11:46:48;101169.26;;;22.80;33.36
47742;BME280;33504;52.066;6.096;2023-07-22T11:49:24;101172.45;;;22.92;33.51
47742;BME280;33504;52.066;6.096;2023-07-22T11:51:53;101168.27;;;23.13;33.25
47742;BME280;33504;52.066;6.096;2023-07-22T11:54:20;101169.80;;;23.24;33.15
47742;BME280;33504;52.066;6.096;2023-07-22T11:56:48;101169.29;;;23.30;33.28
47742;BME280;33504;52.066;6.096;2023-07-22T11:59:15;101166.70;;;23.02;33.52
47742;BME280;33504;52.066;6.096;2023-07-22T12:01:45;101168.31;;;22.72;33.62
47742;BME280;33504;52.066;6.096;2023-07-22T12:04:15;101168.24;;;22.51;34.50
47742;BME280;33504;52.066;6.096;2023-07-22T12:06:42;101164.29;;;22.47;33.86
47742;BME280;33504;52.066;6.096;2023-07-22T12:09:10;101160.72;;;22.36;34.12
47742;BME280;33504;52.066;6.096;2023-07-22T12:11:37;101157.82;;;22.57;33.70
47742;BME280;33504;52.066;6.096;2023-07-22T12:14:07;101156.27;;;22.68;33.99
47742;BME280;33504;52.066;6.096;2023-07-22T12:16:36;101153.65;;;23.04;33.72
47742;BME280;33504;52.066;6.096;2023-07-22T12:19:03;101150.38;;;22.83;34.08
47742;BME280;33504;52.066;6.096;2023-07-22T12:21:30;101145.15;;;23.08;34.29
47742;BME280;33504;52.066;6.096;2023-07-22T12:23:58;101145.42;;;23.03;33.67
47742;BME280;33504;52.066;6.096;2023-07-22T12:26:25;101141.54;;;22.93;33.90
47742;BME280;33504;52.066;6.096;2023-07-22T12:28:53;101144.16;;;22.65;33.94
47742;BME280;33504;52.066;6.096;2023-07-22T12:31:20;101154.35;;;22.24;34.54
47742;BME280;33504;52.066;6.096;2023-07-22T12:33:47;101156.20;;;22.21;35.07
47742;BME280;33504;52.066;6.096;2023-07-22T12:36:14;101146.61;;;22.56;34.48
47742;BME280;33504;52.066;6.096;2023-07-22T12:38:41;101151.54;;;23.21;34.11
47742;BME280;33504;52.066;6.096;2023-07-22T12:41:08;101142.72;;;23.06;34.14
47742;BME280;33504;52.066;6.096;2023-07-22T12:43:34;101140.27;;;23.26;33.76
47742;BME280;33504;52.066;6.096;2023-07-22T12:46:02;101143.60;;;23.34;33.01
47742;BME280;33504;52.066;6.096;2023-07-22T12:48:29;101139.51;;;22.97;33.48
47742;BME280;33504;52.066;6.096;2023-07-22T12:50:57;101145.58;;;23.45;33.57
47742;BME280;33504;52.066;6.096;2023-07-22T12:53:24;101142.94;;;23.21;32.93